Time;durP1;ratioP1;P1;durP2;ratioP2;P2;SDS_P1;SDS_P2;PMS_P1;PMS_P2;Temp;Humidity;BMP_temperature;BMP_pressure;BME280_temperature;BME280_humidity;BME280_pressure;Samples;Min_cycle;Max_cycle;Signal;HPM_P1;HPM_P2
2021/12/10 00:00:30;;;;;;;20.40;13.35;;;;;;;0.59;77.60;99608.59;5033124;28;20029;-51
2021/12/10 00:02:59;;;;;;;19.40;11.15;;;;;;;0.57;77.71;99608.59;5039644;28;20091;-49
2021/12/10 00:05:30;;;;;;;21.70;12.55;;;;;;;0.61;77.41;99601.72;5053276;28;20060;-49
2021/12/10 00:07:56;;;;;;;19.77;12.52;;;;;;;0.59;77.57;99606.00;5053340;28;20078;-50
2021/12/10 00:10:27;;;;;;;18.67;11.70;;;;;;;0.59;78.00;99609.44;5036329;28;20039;-51
2021/12/10 00:12:53;;;;;;;21.02;12.75;;;;;;;0.69;77.78;99600.91;5041901;28;20121;-50
2021/12/10 00:15:21;;;;;;;20.70;12.32;;;;;;;0.66;77.61;99598.31;5053185;28;20065;-52
2021/12/10 00:17:48;;;;;;;23.73;13.32;;;;;;;0.60;77.59;99593.13;5033500;28;20061;-51
2021/12/10 00:20:16;;;;;;;19.58;11.50;;;;;;;0.61;77.64;99599.16;5033446;28;20056;-50
2021/12/10 00:22:50;;;;;;;19.17;11.02;;;;;;;0.59;78.13;99591.34;5033544;28;20060;-49
2021/12/10 00:25:20;;;;;;;23.13;12.88;;;;;;;0.56;78.03;99586.19;5033438;28;20107;-49
2021/12/10 00:27:48;;;;;;;22.88;12.20;;;;;;;0.62;78.11;99588.81;5050466;28;20033;-50
2021/12/10 00:30:25;;;;;;;22.33;13.20;;;;;;;0.63;77.97;99582.75;5050625;28;20115;-49
2021/12/10 00:33:02;;;;;;;22.80;13.40;;;;;;;0.64;77.99;99589.69;5049923;28;20033;-50
2021/12/10 00:35:30;;;;;;;21.85;12.18;;;;;;;0.65;77.82;99591.41;5033373;28;20057;-51
2021/12/10 00:37:56;;;;;;;22.20;11.27;;;;;;;0.65;78.00;99591.41;5033354;28;20096;-50
2021/12/10 00:40:24;;;;;;;21.73;12.65;;;;;;;0.69;77.45;99590.56;5033366;28;20033;-49
2021/12/10 00:42:49;;;;;;;20.42;12.18;;;;;;;0.69;77.63;99593.16;5033494;28;20117;-50
2021/12/10 00:45:17;;;;;;;20.80;11.57;;;;;;;0.73;77.58;99591.44;5033402;28;20467;-50
2021/12/10 00:47:43;;;;;;;23.48;13.25;;;;;;;0.77;77.18;99589.75;5046622;28;20124;-50
2021/12/10 00:50:14;;;;;;;25.55;12.65;;;;;;;0.64;77.86;99586.22;5052128;28;20033;-50
2021/12/10 00:52:42;;;;;;;20.85;12.15;;;;;;;0.55;78.05;99581.00;5035777;28;20521;-50
2021/12/10 00:55:08;;;;;;;19.70;11.15;;;;;;;0.58;77.99;99581.88;5039639;28;20489;-51
2021/12/10 00:57:34;;;;;;;20.35;11.68;;;;;;;0.61;78.23;99578.47;5037340;28;20054;-49
2021/12/10 00:59:59;;;;;;;24.10;13.23;;;;;;;0.63;78.38;99592.25;5036702;28;20109;-53
2021/12/10 01:02:26;;;;;;;26.45;13.85;;;;;;;0.66;77.82;99585.38;5037082;28;20030;-50
2021/12/10 01:04:57;;;;;;;21.20;11.68;;;;;;;0.67;77.60;99575.88;5035421;28;20021;-49
2021/12/10 01:07:28;;;;;;;21.27;11.75;;;;;;;0.66;77.67;99569.84;5035445;28;20029;-50
2021/12/10 01:09:56;;;;;;;21.60;11.82;;;;;;;0.57;77.98;99563.78;5036648;28;20072;-50
2021/12/10 01:12:24;;;;;;;22.42;12.50;;;;;;;0.50;78.44;99565.47;5036573;28;20037;-53
2021/12/10 01:15:49;;;;;;;22.13;11.98;;;;;;;0.52;78.72;99561.19;5046974;28;20420;-49
2021/12/10 01:23:52;;;;;;;20.08;10.60;;;;;;;0.54;78.68;99559.44;5056496;28;20063;-49
2021/12/10 01:26:40;;;;;;;19.83;11.38;;;;;;;0.57;78.18;99556.03;5053555;28;20057;-53
2021/12/10 01:29:08;;;;;;;23.98;13.23;;;;;;;0.62;78.28;99543.97;5036385;28;20037;-51
2021/12/10 01:31:34;;;;;;;24.38;12.70;;;;;;;0.60;78.32;99541.41;5036570;28;20029;-49
2021/12/10 01:34:00;;;;;;;20.75;10.98;;;;;;;0.60;78.47;99535.34;5049531;28;20128;-51
2021/12/10 01:36:26;;;;;;;22.48;12.15;;;;;;;0.61;78.63;99535.38;5056050;28;20033;-52
2021/12/10 01:38:53;;;;;;;22.85;12.07;;;;;;;0.64;78.53;99537.97;5052847;28;20025;-49
2021/12/10 01:41:22;;;;;;;20.85;11.80;;;;;;;0.62;78.52;99529.34;5035888;28;20068;-50
2021/12/10 01:43:51;;;;;;;22.27;11.63;;;;;;;0.58;78.96;99522.41;5035833;28;20069;-50
2021/12/10 01:46:25;;;;;;;23.73;12.32;;;;;;;0.60;78.75;99525.00;5037757;28;20041;-49
2021/12/10 01:48:55;;;;;;;26.67;14.65;;;;;;;0.54;79.18;99518.09;5054909;28;20069;-49
2021/12/10 01:51:25;;;;;;;24.63;12.88;;;;;;;0.54;79.51;99519.81;5055613;28;20431;-51
2021/12/10 01:53:58;;;;;;;22.40;13.13;;;;;;;0.52;79.35;99512.06;5051154;28;20086;-53
2021/12/10 01:56:30;;;;;;;22.57;12.00;;;;;;;0.55;79.11;99516.38;5055919;28;20052;-52
2021/12/10 01:58:56;;;;;;;23.40;11.40;;;;;;;0.55;79.10;99501.72;5055769;28;20025;-49
2021/12/10 02:01:28;;;;;;;21.67;12.20;;;;;;;0.59;79.14;99492.25;5036318;28;20057;-50
2021/12/10 02:03:54;;;;;;;19.17;11.18;;;;;;;0.61;79.19;99486.25;5034584;28;20033;-51
2021/12/10 02:06:22;;;;;;;25.55;13.90;;;;;;;0.62;79.19;99482.78;5041506;28;20083;-50
2021/12/10 02:08:47;;;;;;;26.10;13.95;;;;;;;0.64;78.95;99481.09;5055498;28;20077;-51
2021/12/10 02:11:14;;;;;;;21.73;11.18;;;;;;;0.70;78.85;99478.50;5055528;28;20116;-49
2021/12/10 02:13:39;;;;;;;20.15;10.77;;;;;;;0.75;78.47;99481.13;5040237;28;20033;-49
2021/12/10 02:16:06;;;;;;;20.63;11.45;;;;;;;0.72;78.82;99473.38;5035192;28;20038;-50
2021/12/10 02:18:32;;;;;;;20.33;11.05;;;;;;;0.73;78.77;99475.94;5035841;28;20029;-49
2021/12/10 02:21:00;;;;;;;22.52;12.27;;;;;;;0.71;79.29;99461.28;5055326;28;20124;-49
2021/12/10 02:23:27;;;;;;;22.25;11.85;;;;;;;0.74;78.90;99464.75;5055329;28;20037;-52
2021/12/10 02:25:53;;;;;;;23.58;13.70;;;;;;;0.70;79.30;99457.84;5045095;28;20077;-52
2021/12/10 02:28:19;;;;;;;18.80;10.75;;;;;;;0.69;79.34;99455.25;5035609;28;20044;-50
2021/12/10 02:30:45;;;;;;;21.98;12.73;;;;;;;0.71;79.13;99450.94;5035408;28;20042;-51
2021/12/10 02:33:14;;;;;;;19.85;11.80;;;;;;;0.64;79.12;99449.19;5052256;28;20037;-49
2021/12/10 02:35:40;;;;;;;19.27;10.75;;;;;;;0.62;79.62;99441.44;5055045;28;20484;-49
2021/12/10 02:38:07;;;;;;;19.85;11.93;;;;;;;0.59;79.88;99433.66;5053351;28;20044;-51
2021/12/10 02:40:34;;;;;;;26.10;12.48;;;;;;;0.61;79.80;99434.53;5054902;28;20087;-53
2021/12/10 02:43:06;;;;;;;21.02;12.30;;;;;;;0.55;80.20;99442.25;5040820;28;20045;-49
2021/12/10 02:45:32;;;;;;;23.13;12.57;;;;;;;0.56;80.35;99451.75;5034893;28;20026;-53
2021/12/10 02:47:59;;;;;;;22.75;12.82;;;;;;;0.56;80.69;99454.34;5034753;28;20069;-51
2021/12/10 02:50:28;;;;;;;21.42;11.70;;;;;;;0.58;80.36;99442.28;5036262;28;20041;-50
2021/12/10 02:52:53;;;;;;;20.00;11.85;;;;;;;0.59;80.57;99440.56;5054691;28;20021;-49
2021/12/10 02:55:20;;;;;;;18.33;11.32;;;;;;;0.64;80.41;99444.00;5054321;28;20357;-49
2021/12/10 02:57:50;;;;;;;20.67;12.05;;;;;;;0.63;80.71;99442.28;5052822;28;20051;-50
2021/12/10 03:00:19;;;;;;;20.48;12.10;;;;;;;0.66;80.29;99438.00;5054699;28;20524;-49
2021/12/10 03:02:45;;;;;;;19.63;10.77;;;;;;;0.69;80.30;99427.66;5044783;28;20025;-50
2021/12/10 03:05:11;;;;;;;17.73;10.40;;;;;;;0.73;80.27;99434.56;5049412;28;20037;-49
2021/12/10 03:07:39;;;;;;;18.60;10.73;;;;;;;0.72;80.20;99427.69;5054244;28;20033;-50
2021/12/10 03:10:14;;;;;;;18.65;12.13;;;;;;;0.67;80.90;99413.84;5054006;28;20078;-52
2021/12/10 03:12:39;;;;;;;19.52;11.10;;;;;;;0.67;81.01;99416.44;5052820;28;20033;-53
2021/12/10 03:15:07;;;;;;;18.30;11.23;;;;;;;0.64;80.87;99405.22;5053620;28;20487;-52
2021/12/10 03:17:33;;;;;;;19.40;11.43;;;;;;;0.67;81.03;99405.25;5034220;28;20041;-49
2021/12/10 03:20:00;;;;;;;16.17;10.05;;;;;;;0.73;80.64;99408.72;5016526;28;20033;-51
2021/12/10 03:22:26;;;;;;;14.27;8.57;;;;;;;0.72;80.84;99399.25;5043160;28;20525;-50
2021/12/10 03:24:53;;;;;;;17.35;9.55;;;;;;;0.73;80.88;99382.88;5052663;28;20148;-50
2021/12/10 03:27:20;;;;;;;16.38;9.65;;;;;;;0.72;81.04;99380.28;5054007;28;20059;-51
2021/12/10 03:29:46;;;;;;;15.63;9.07;;;;;;;0.80;80.51;99367.34;5033582;28;20452;-51
2021/12/10 03:32:21;;;;;;;14.38;9.10;;;;;;;0.75;80.85;99364.75;5033917;28;20065;-52
2021/12/10 03:34:50;;;;;;;16.50;9.82;;;;;;;0.75;81.12;99359.59;5043752;28;20029;-50
2021/12/10 03:37:18;;;;;;;16.55;10.35;;;;;;;0.72;81.31;99365.63;5053954;28;20033;-49
2021/12/10 03:39:46;;;;;;;15.18;8.93;;;;;;;0.73;81.34;99362.19;5053806;28;20094;-50
2021/12/10 03:42:12;;;;;;;14.68;8.93;;;;;;;0.73;81.30;99357.00;5053981;28;20033;-50
2021/12/10 03:44:38;;;;;;;15.73;9.15;;;;;;;0.81;81.26;99369.09;5051732;28;20832;-49
2021/12/10 03:47:06;;;;;;;14.38;8.55;;;;;;;0.83;80.85;99362.19;5052951;28;20040;-51
2021/12/10 03:49:32;;;;;;;15.77;8.48;;;;;;;0.88;80.78;99369.09;5052051;28;20067;-48
2021/12/10 03:51:58;;;;;;;12.77;7.75;;;;;;;0.86;80.74;99357.03;5049231;28;20032;-49
2021/12/10 03:54:24;;;;;;;15.52;8.95;;;;;;;0.87;80.73;99357.00;5043637;28;20385;-48
2021/12/10 03:56:50;;;;;;;11.90;7.38;;;;;;;0.88;80.77;99365.66;5035736;28;20095;-50
2021/12/10 03:59:18;;;;;;;15.43;8.80;;;;;;;0.87;81.04;99363.91;5035967;28;20436;-49
2021/12/10 04:01:47;;;;;;;14.23;8.43;;;;;;;0.86;81.51;99370.81;5048465;28;20041;-49
2021/12/10 04:04:20;;;;;;;15.20;8.45;;;;;;;0.86;81.46;99357.03;5052939;28;20029;-50
2021/12/10 04:06:47;;;;;;;16.25;8.77;;;;;;;0.88;81.31;99356.19;5053542;28;20037;-48
2021/12/10 04:09:13;;;;;;;16.02;8.65;;;;;;;0.87;81.41;99353.56;5053532;28;20041;-49
2021/12/10 04:11:40;;;;;;;15.98;8.48;;;;;;;0.88;81.51;99351.00;5053199;28;20154;-50
2021/12/10 04:14:06;;;;;;;12.88;8.18;;;;;;;0.92;81.51;99346.69;5049878;28;20044;-53
2021/12/10 04:16:33;;;;;;;15.27;8.70;;;;;;;0.95;81.42;99337.19;5041672;28;20049;-53
2021/12/10 04:19:01;;;;;;;15.57;9.05;;;;;;;0.96;81.40;99331.19;5052693;28;20392;-55
2021/12/10 04:21:27;;;;;;;13.15;7.95;;;;;;;0.98;81.21;99324.25;5051209;28;20032;-50
2021/12/10 04:23:53;;;;;;;14.23;8.32;;;;;;;1.00;81.04;99334.63;5036691;28;20041;-49
2021/12/10 04:26:23;;;;;;;15.18;9.07;;;;;;;0.88;82.11;99327.72;5053460;28;20079;-51
2021/12/10 04:28:49;;;;;;;14.45;8.02;;;;;;;0.90;82.03;99318.22;5056872;28;20115;-53
2021/12/10 04:31:14;;;;;;;14.13;8.35;;;;;;;0.87;81.99;99318.22;5050585;28;20155;-50
2021/12/10 04:33:40;;;;;;;13.48;7.72;;;;;;;0.98;81.75;99331.16;5051897;28;20030;-51
2021/12/10 04:36:07;;;;;;;13.18;8.27;;;;;;;1.04;81.79;99340.63;5037197;28;20063;-50
2021/12/10 04:38:34;;;;;;;16.58;8.82;;;;;;;1.04;81.40;99336.34;5037521;28;20037;-53
2021/12/10 04:41:04;;;;;;;16.42;9.57;;;;;;;1.05;81.50;99343.25;5053226;28;20385;-51
2021/12/10 04:43:32;;;;;;;14.50;9.18;;;;;;;1.07;81.41;99333.75;5050693;28;20079;-49
2021/12/10 04:45:58;;;;;;;13.77;7.68;;;;;;;1.12;80.88;99338.94;5056421;28;20384;-49
2021/12/10 04:48:26;;;;;;;15.68;9.27;;;;;;;1.16;80.90;99344.13;5056840;28;20029;-49
2021/12/10 04:50:52;;;;;;;19.85;11.65;;;;;;;1.20;80.61;99338.06;5050190;28;20087;-50
2021/12/10 04:53:18;;;;;;;16.33;9.77;;;;;;;1.17;80.89;99332.03;5037003;28;20045;-48
2021/12/10 04:55:43;;;;;;;15.98;9.38;;;;;;;1.13;81.02;99326.00;5036657;28;20044;-51
2021/12/10 04:58:10;;;;;;;14.25;8.70;;;;;;;1.10;81.47;99325.13;5053841;28;20067;-50
2021/12/10 05:00:48;;;;;;;14.90;8.95;;;;;;;1.10;81.12;99326.00;5056807;28;20064;-51
2021/12/10 05:03:15;;;;;;;14.07;8.10;;;;;;;1.12;81.33;99326.00;5056496;28;20519;-50
2021/12/10 05:05:43;;;;;;;18.50;10.75;;;;;;;1.16;81.26;99331.19;5056578;28;20033;-50
2021/12/10 05:08:10;;;;;;;24.88;14.68;;;;;;;1.23;80.99;99329.41;5049623;28;20036;-50
2021/12/10 05:10:36;;;;;;;33.70;18.75;;;;;;;1.25;80.92;99324.25;5036392;28;20026;-50
2021/12/10 05:13:02;;;;;;;70.78;27.58;;;;;;;1.32;80.58;99318.22;5037113;28;20121;-50
2021/12/10 05:15:31;;;;;;;42.00;20.52;;;;;;;1.30;80.41;99312.19;5039335;28;20169;-49
2021/12/10 05:17:57;;;;;;;54.80;30.67;;;;;;;1.33;80.37;99317.34;5036233;28;20048;-51
2021/12/10 05:20:36;;;;;;;34.20;18.48;;;;;;;1.31;80.52;99308.72;5041202;28;20450;-50
2021/12/10 05:23:03;;;;;;;30.67;18.70;;;;;;;1.32;80.60;99315.63;5056280;28;20036;-53
2021/12/10 05:25:30;;;;;;;24.77;13.63;;;;;;;1.27;80.73;99313.03;5041934;28;20049;-53
2021/12/10 05:27:57;;;;;;;28.30;14.75;;;;;;;1.32;80.51;99305.28;5035847;28;20084;-49
2021/12/10 05:30:24;;;;;;;31.85;15.27;;;;;;;1.36;80.44;99296.66;5034714;28;20112;-51
2021/12/10 05:32:50;;;;;;;30.50;14.98;;;;;;;1.36;80.36;99301.81;5036274;28;20037;-50
2021/12/10 05:35:16;;;;;;;25.98;12.80;;;;;;;1.36;80.17;99291.47;5035998;28;20108;-49
2021/12/10 05:37:42;;;;;;;23.27;12.18;;;;;;;1.33;80.47;99294.06;5035345;28;20068;-50
2021/12/10 05:40:12;;;;;;;21.17;11.80;;;;;;;1.36;81.95;99281.13;5035309;28;20112;-54
2021/12/10 05:42:39;;;;;;;46.28;19.92;;;;;;;1.44;81.26;99289.72;5040501;28;20091;-50
2021/12/10 05:45:06;;;;;;;38.22;17.13;;;;;;;1.42;81.00;99281.09;5054672;28;20099;-50
2021/12/10 05:47:31;;;;;;;29.58;13.25;;;;;;;1.45;80.71;99286.25;5037478;28;20041;-50
2021/12/10 05:49:56;;;;;;;57.00;20.88;;;;;;;1.43;80.73;99275.91;5055772;28;20036;-51
2021/12/10 05:52:23;;;;;;;40.78;17.35;;;;;;;1.42;80.77;99278.50;5055753;28;20060;-50
2021/12/10 05:54:50;;;;;;;81.18;27.40;;;;;;;1.44;80.65;99276.78;5055853;28;20033;-52
2021/12/10 05:57:16;;;;;;;48.25;19.25;;;;;;;1.38;80.97;99269.88;5053999;28;20053;-52
2021/12/10 05:59:41;;;;;;;56.75;21.52;;;;;;;1.35;81.32;99274.19;5055797;28;20033;-51
2021/12/10 06:02:07;;;;;;;72.50;25.60;;;;;;;1.38;80.96;99276.78;5053080;28;20048;-53
2021/12/10 06:04:34;;;;;;;56.45;20.30;;;;;;;1.38;81.14;99275.06;5053021;28;20029;-53
2021/12/10 06:07:00;;;;;;;58.42;19.85;;;;;;;1.36;81.31;99275.94;5052616;28;20032;-52
2021/12/10 06:09:26;;;;;;;34.75;15.40;;;;;;;1.42;81.03;99281.09;5042833;28;20047;-52
2021/12/10 06:11:51;;;;;;;44.40;17.45;;;;;;;1.43;80.86;99282.81;5042290;28;20384;-50
2021/12/10 06:14:17;;;;;;;35.40;16.13;;;;;;;1.43;80.88;99281.06;5035653;28;20078;-51
2021/12/10 06:16:42;;;;;;;33.38;14.43;;;;;;;1.44;80.89;99279.38;5035313;28;20037;-51
2021/12/10 06:19:08;;;;;;;33.95;16.45;;;;;;;1.44;80.85;99279.38;5033745;28;20094;-51
2021/12/10 06:21:35;;;;;;;28.38;13.68;;;;;;;1.36;81.50;99276.81;5033625;28;20473;-51
2021/12/10 06:24:02;;;;;;;28.73;12.98;;;;;;;1.25;82.01;99275.94;5033817;28;20038;-50
2021/12/10 06:26:28;;;;;;;31.20;14.93;;;;;;;1.28;82.24;99275.06;5034728;28;20129;-50
2021/12/10 06:28:53;;;;;;;33.22;14.15;;;;;;;1.29;82.10;99264.72;5035381;28;20458;-51
2021/12/10 06:31:21;;;;;;;23.88;12.52;;;;;;;1.27;82.22;99256.09;5035241;28;20029;-53
2021/12/10 06:33:47;;;;;;;25.90;12.35;;;;;;;1.29;82.17;99258.69;5033802;28;20037;-51
2021/12/10 06:36:15;;;;;;;24.35;11.73;;;;;;;1.32;82.21;99261.28;5035077;28;20040;-50
2021/12/10 06:38:41;;;;;;;27.13;13.55;;;;;;;1.30;82.05;99260.41;5034998;28;20083;-50
2021/12/10 06:41:07;;;;;;;47.50;18.88;;;;;;;1.30;82.30;99257.81;5034674;28;20424;-50
2021/12/10 06:43:33;;;;;;;36.42;16.73;;;;;;;1.32;82.10;99243.16;5035031;28;20121;-54
2021/12/10 06:46:00;;;;;;;29.48;15.88;;;;;;;1.33;82.25;99245.75;5035584;28;20140;-51
2021/12/10 06:48:28;;;;;;;20.02;11.68;;;;;;;1.37;82.27;99251.78;5034880;28;20037;-52
2021/12/10 06:51:07;;;;;;;27.33;13.68;;;;;;;1.38;82.30;99258.66;5038592;28;20057;-52
2021/12/10 06:53:32;;;;;;;28.80;13.75;;;;;;;1.36;82.24;99250.91;5034728;28;20075;-52
2021/12/10 06:55:59;;;;;;;22.95;12.60;;;;;;;1.36;82.05;99244.88;5034499;28;20445;-53
2021/12/10 06:58:27;;;;;;;21.38;11.63;;;;;;;1.37;82.50;99241.44;5048111;28;20033;-50
2021/12/10 07:00:56;;;;;;;16.80;10.13;;;;;;;1.37;82.24;99242.28;5039372;28;20033;-54
2021/12/10 07:03:24;;;;;;;20.60;11.02;;;;;;;1.38;82.35;99232.78;5053637;28;20033;-54
2021/12/10 07:05:52;;;;;;;22.50;11.68;;;;;;;1.39;82.33;99235.34;5048258;28;20033;-55
2021/12/10 07:08:19;;;;;;;21.67;11.38;;;;;;;1.44;83.20;99244.00;5033289;28;20029;-51
2021/12/10 07:10:45;;;;;;;23.13;12.05;;;;;;;1.50;82.67;99237.91;5033260;28;20477;-50
2021/12/10 07:13:11;;;;;;;27.67;14.35;;;;;;;1.56;82.04;99227.56;5047477;28;20032;-55
2021/12/10 07:15:41;;;;;;;17.27;10.02;;;;;;;1.56;81.74;99221.53;5047280;28;20029;-55
2021/12/10 07:18:07;;;;;;;22.88;13.25;;;;;;;1.58;81.43;99220.63;5039879;28;20038;-50
2021/12/10 07:20:33;;;;;;;26.40;14.63;;;;;;;1.54;81.83;99213.75;5035452;28;20033;-51
2021/12/10 07:22:59;;;;;;;24.88;13.80;;;;;;;1.57;82.03;99216.31;5053389;28;20036;-50
2021/12/10 07:25:24;;;;;;;27.77;15.60;;;;;;;1.68;82.22;99214.56;5042648;28;20556;-49
2021/12/10 07:27:51;;;;;;;28.38;15.75;;;;;;;1.72;81.22;99213.69;5049197;28;20389;-50
2021/12/10 07:30:21;;;;;;;27.55;15.32;;;;;;;1.77;80.96;99215.38;5015929;28;20057;-54
2021/12/10 07:32:47;;;;;;;25.80;15.40;;;;;;;1.81;80.79;99225.72;5049325;28;20041;-50
2021/12/10 07:35:13;;;;;;;33.63;17.92;;;;;;;1.86;80.36;99236.06;5039450;28;20040;-52
2021/12/10 07:37:39;;;;;;;26.08;13.98;;;;;;;1.88;80.16;99229.16;5044455;28;20033;-51
2021/12/10 07:40:08;;;;;;;23.25;12.45;;;;;;;1.82;80.06;99229.16;5036908;28;20082;-50
2021/12/10 07:42:34;;;;;;;18.90;10.38;;;;;;;1.81;80.45;99223.13;5034394;28;20456;-51
2021/12/10 07:44:59;;;;;;;15.65;9.52;;;;;;;1.77;80.73;99224.00;5041904;28;20048;-50
2021/12/10 07:47:27;;;;;;;18.98;10.77;;;;;;;1.75;80.63;99217.09;5045554;28;20473;-51
2021/12/10 07:49:53;;;;;;;32.25;17.55;;;;;;;1.78;81.09;99211.91;5042389;28;20161;-52
2021/12/10 07:52:24;;;;;;;76.35;42.25;;;;;;;1.82;80.87;99224.00;5038065;28;20428;-51
2021/12/10 07:54:50;;;;;;;76.60;40.95;;;;;;;1.83;80.70;99217.94;5043783;28;20041;-52
2021/12/10 07:57:18;;;;;;;86.65;49.83;;;;;;;1.90;80.40;99222.22;5023103;28;20843;-51
2021/12/10 07:59:45;;;;;;;96.18;60.95;;;;;;;1.88;80.70;99229.16;5049754;28;20032;-50
2021/12/10 08:02:11;;;;;;;62.50;41.10;;;;;;;1.92;80.38;99226.53;5043369;28;20082;-50
2021/12/10 08:04:37;;;;;;;34.83;24.25;;;;;;;1.98;80.42;99228.22;5044970;28;20029;-52
2021/12/10 08:07:04;;;;;;;22.67;15.55;;;;;;;2.05;80.29;99213.50;5025455;28;20075;-51
2021/12/10 08:09:30;;;;;;;23.13;14.40;;;;;;;2.03;79.94;99220.41;5035697;28;20469;-51
2021/12/10 08:11:55;;;;;;;19.55;12.48;;;;;;;2.11;79.69;99216.91;5042240;28;20041;-51
2021/12/10 08:14:21;;;;;;;18.05;11.55;;;;;;;2.11;79.61;99214.31;5039903;28;20076;-51
2021/12/10 08:16:46;;;;;;;14.40;10.30;;;;;;;2.15;79.70;99207.38;5041221;28;20064;-52
2021/12/10 08:19:12;;;;;;;18.00;11.05;;;;;;;2.08;80.12;99213.50;5039173;28;20041;-51
2021/12/10 08:21:40;;;;;;;14.45;9.55;;;;;;;2.10;80.22;99203.97;5043665;28;20049;-52
2021/12/10 08:24:06;;;;;;;15.05;9.65;;;;;;;2.18;79.85;99202.19;5015370;28;20045;-54
2021/12/10 08:26:33;;;;;;;13.32;8.90;;;;;;;2.21;79.50;99192.66;5031572;28;20531;-55
2021/12/10 08:28:59;;;;;;;15.68;10.00;;;;;;;2.30;79.19;99202.09;5046723;28;20540;-52
2021/12/10 08:31:24;;;;;;;16.23;10.60;;;;;;;2.34;78.74;99184.81;5048399;28;20112;-52
2021/12/10 08:33:50;;;;;;;15.63;10.00;;;;;;;2.36;78.75;99183.06;5034777;28;20492;-52
2021/12/10 08:36:21;;;;;;;13.40;8.57;;;;;;;2.44;79.48;99183.88;5033305;28;20073;-54
2021/12/10 08:38:47;;;;;;;13.13;8.50;;;;;;;2.52;78.41;99196.78;5034303;28;20025;-51
2021/12/10 08:41:20;;;;;;;13.50;9.05;;;;;;;2.60;78.62;99195.84;5032234;28;20030;-53
2021/12/10 08:43:46;;;;;;;12.73;8.63;;;;;;;2.64;78.01;99196.69;5031976;28;20037;-51
2021/12/10 08:46:14;;;;;;;16.98;9.70;;;;;;;2.76;77.50;99200.91;5033256;28;20113;-52
2021/12/10 08:48:40;;;;;;;16.60;8.50;;;;;;;2.75;77.37;99192.22;5031694;28;20026;-54
2021/12/10 08:51:14;;;;;;;14.95;9.02;;;;;;;2.78;76.90;99199.13;5031816;28;20040;-54
2021/12/10 08:53:40;;;;;;;13.82;8.73;;;;;;;2.71;77.19;99203.50;5031647;28;20030;-54
2021/12/10 08:56:09;;;;;;;14.60;8.27;;;;;;;2.85;77.12;99200.81;5031483;28;20121;-53
2021/12/10 08:58:34;;;;;;;16.55;9.18;;;;;;;2.99;76.71;99200.66;5031779;28;20030;-50
2021/12/10 09:01:09;;;;;;;12.45;8.15;;;;;;;3.07;76.21;99201.44;5033002;28;20401;-55
2021/12/10 09:03:35;;;;;;;10.90;7.07;;;;;;;3.13;75.89;99202.25;5033272;28;20061;-51
2021/12/10 09:06:03;;;;;;;12.57;7.75;;;;;;;3.13;75.35;99196.22;5032793;28;20437;-51
2021/12/10 09:08:28;;;;;;;11.55;8.27;;;;;;;3.13;75.77;99197.06;5015103;28;20033;-52
2021/12/10 09:10:54;;;;;;;12.05;8.00;;;;;;;3.13;75.72;99206.59;5041150;28;20095;-51
2021/12/10 09:13:20;;;;;;;9.90;7.68;;;;;;;3.17;75.34;99208.28;5054468;28;20025;-50
2021/12/10 09:15:57;;;;;;;11.77;8.35;;;;;;;3.27;75.23;99204.72;5056215;28;20040;-49
2021/12/10 09:18:23;;;;;;;12.30;8.98;;;;;;;3.36;74.74;99198.56;5056134;28;20033;-50
2021/12/10 09:20:52;;;;;;;13.80;9.35;;;;;;;3.47;74.45;99207.06;5056571;28;20091;-52
2021/12/10 09:23:22;;;;;;;16.27;11.70;;;;;;;3.54;73.97;99190.53;5054816;28;20087;-55
2021/12/10 09:25:49;;;;;;;12.48;8.88;;;;;;;3.50;74.17;99185.41;5038625;28;20040;-51
2021/12/10 09:28:15;;;;;;;17.95;11.98;;;;;;;3.55;73.99;99181.88;5054817;28;20039;-51
2021/12/10 09:30:44;;;;;;;18.63;12.88;;;;;;;3.58;74.00;99178.38;5038352;28;20029;-50
2021/12/10 09:33:10;;;;;;;12.30;9.65;;;;;;;3.74;73.39;99174.69;5054631;28;20017;-49
2021/12/10 09:35:36;;;;;;;15.45;10.77;;;;;;;3.86;72.99;99163.28;5054920;28;20040;-49
2021/12/10 09:38:04;;;;;;;12.85;8.93;;;;;;;3.98;72.42;99157.91;5055779;28;20083;-50
2021/12/10 09:40:38;;;;;;;12.75;9.20;;;;;;;4.25;71.59;99161.00;5054624;28;20037;-50
2021/12/10 09:43:06;;;;;;;14.63;10.25;;;;;;;4.48;70.77;99161.47;5054449;28;20527;-51
2021/12/10 09:45:36;;;;;;;13.77;9.10;;;;;;;4.60;70.34;99156.06;5055711;28;20399;-50
2021/12/10 09:48:04;;;;;;;11.88;8.95;;;;;;;4.64;70.72;99167.28;5054271;28;20460;-51
2021/12/10 09:50:32;;;;;;;10.82;8.65;;;;;;;4.72;70.63;99167.16;5054132;28;20469;-50
2021/12/10 09:52:59;;;;;;;13.05;9.57;;;;;;;4.79;70.07;99168.75;5053866;28;20124;-50
2021/12/10 09:55:27;;;;;;;12.60;9.25;;;;;;;4.82;69.48;99163.50;5055455;28;20472;-52
2021/12/10 09:57:53;;;;;;;11.57;9.75;;;;;;;4.91;69.34;99168.56;5054252;28;20519;-53
2021/12/10 10:00:36;;;;;;;11.75;9.00;;;;;;;5.03;68.34;99164.88;5053974;28;20055;-51
2021/12/10 10:03:05;;;;;;;13.52;9.30;;;;;;;5.37;68.10;99172.88;5054160;28;20021;-53
2021/12/10 10:05:32;;;;;;;13.90;8.52;;;;;;;5.67;66.92;99164.47;5055124;28;20116;-53
2021/12/10 10:08:03;;;;;;;11.82;8.23;;;;;;;5.91;66.67;99157.00;5053916;28;20042;-53
2021/12/10 10:10:30;;;;;;;15.05;9.80;;;;;;;5.97;66.16;99159.50;5053788;28;20477;-50
2021/12/10 10:12:57;;;;;;;11.05;7.85;;;;;;;5.91;66.27;99165.69;5054001;28;20488;-50
2021/12/10 10:15:28;;;;;;;13.75;9.07;;;;;;;5.82;65.90;99165.00;5053969;28;20123;-50
2021/12/10 10:17:57;;;;;;;11.68;7.97;;;;;;;5.75;66.27;99163.44;5054096;28;20033;-53
2021/12/10 10:20:23;;;;;;;13.82;9.13;;;;;;;5.80;67.04;99154.63;5053694;28;20388;-49
2021/12/10 10:22:50;;;;;;;9.40;7.18;;;;;;;5.84;66.80;99152.81;5053612;28;20041;-52
2021/12/10 10:25:17;;;;;;;11.82;8.45;;;;;;;5.81;66.81;99153.72;5052530;28;20045;-50
2021/12/10 10:27:43;;;;;;;11.98;8.68;;;;;;;5.75;66.80;99153.88;5053637;28;20040;-52
2021/12/10 10:30:30;;;;;;;12.95;8.82;;;;;;;5.83;67.42;99158.91;5054940;28;20400;-54
2021/12/10 10:32:59;;;;;;;14.25;8.80;;;;;;;5.86;67.11;99151.00;5054789;28;20029;-50
2021/12/10 10:35:30;;;;;;;12.40;8.23;;;;;;;5.71;66.83;99156.59;5053401;28;20033;-53
2021/12/10 10:37:57;;;;;;;14.27;10.02;;;;;;;5.52;67.14;99156.09;5053395;28;20029;-51
2021/12/10 10:40:27;;;;;;;12.52;8.98;;;;;;;5.27;67.44;99155.75;5036890;28;20459;-51
2021/12/10 10:42:53;;;;;;;10.40;8.02;;;;;;;5.08;68.52;99163.91;5053275;28;20495;-52
2021/12/10 10:45:25;;;;;;;9.88;7.07;;;;;;;5.10;70.09;99163.84;5054723;28;20052;-50
2021/12/10 10:47:52;;;;;;;15.23;10.40;;;;;;;5.16;68.01;99159.41;5054512;28;20029;-50
2021/12/10 10:50:27;;;;;;;13.82;10.57;;;;;;;5.21;67.81;99168.88;5053029;28;20033;-52
2021/12/10 10:52:59;;;;;;;12.50;9.30;;;;;;;5.32;67.66;99164.31;5053072;28;20029;-48
2021/12/10 10:55:30;;;;;;;13.83;11.33;;;;;;;5.57;66.92;99165.53;5052876;28;20029;-52
2021/12/10 10:58:05;;;;;;;13.30;9.77;;;;;;;5.81;67.15;99164.16;5052963;28;20294;-51
2021/12/10 11:00:39;;;;;;;12.88;9.88;;;;;;;6.14;65.75;99166.94;5054083;28;20036;-53
2021/12/10 11:03:12;;;;;;;16.73;11.38;;;;;;;6.26;64.95;99163.19;5052861;28;20089;-52
2021/12/10 11:05:57;;;;;;;40.40;26.75;;;;;;;6.21;62.51;99152.84;5054063;28;20036;-49
2021/12/10 11:08:37;;;;;;;25.98;19.70;;;;;;;6.11;64.49;99161.81;5052999;28;20404;-53
2021/12/10 11:11:11;;;;;;;20.42;14.43;;;;;;;5.95;64.72;99161.28;5045425;28;20033;-52
2021/12/10 11:13:37;;;;;;;41.40;27.17;;;;;;;5.79;65.37;99154.66;5032883;28;20462;-50
2021/12/10 11:16:09;;;;;;;20.52;14.90;;;;;;;5.57;65.16;99160.31;5033760;28;20033;-51
2021/12/10 11:18:56;;;;;;;19.58;14.60;;;;;;;5.67;65.54;99156.63;5032894;28;20492;-53
2021/12/10 11:21:36;;;;;;;17.88;13.35;;;;;;;5.53;65.08;99158.66;5032518;28;20464;-50
2021/12/10 11:24:09;;;;;;;16.20;12.10;;;;;;;5.62;65.65;99150.66;5033802;28;20068;-50
2021/12/10 11:26:47;;;;;;;16.05;12.57;;;;;;;5.53;65.51;99150.84;5013756;28;20038;-50
2021/12/10 11:29:35;;;;;;;16.80;12.90;;;;;;;5.45;65.30;99144.94;5020370;28;20033;-51
2021/12/10 11:32:11;;;;;;;17.27;13.45;;;;;;;5.34;66.44;99155.56;5032236;28;20030;-52
2021/12/10 11:35:08;;;;;;;15.30;11.48;;;;;;;5.26;65.82;99151.41;5033753;28;20044;-49
2021/12/10 11:37:45;;;;;;;16.98;12.38;;;;;;;5.19;66.65;99158.50;5032398;28;20083;-53
2021/12/10 11:40:27;;;;;;;16.75;11.35;;;;;;;5.17;67.81;99142.88;5032486;28;20030;-51